sensor_id;sensor_type;location;lat;lon;timestamp;pressure;altitude;pressure_sealevel;temperature;humidity
44996;BME280;30729;49.486;10.792;2024-03-02T17:23:57;96450.56;;;8.54;100.00
44996;BME280;30729;49.486;10.792;2024-03-02T17:26:23;96449.19;;;8.65;100.00
44996;BME280;30729;49.486;10.792;2024-03-02T17:28:48;96453.50;;;8.66;100.00
44996;BME280;30729;49.486;10.792;2024-03-02T17:31:13;96451.78;;;8.68;100.00
44996;BME280;30729;49.486;10.792;2024-03-02T17:33:39;96457.41;;;8.74;100.00
44996;BME280;30729;49.486;10.792;2024-03-02T17:36:04;96458.38;;;8.71;100.00
44996;BME280;30729;49.486;10.792;2024-03-02T17:38:30;96457.69;;;8.76;100.00
44996;BME280;30729;49.486;10.792;2024-03-02T17:40:55;96457.19;;;8.77;100.00
44996;BME280;30729;49.486;10.792;2024-03-02T17:43:22;96463.41;;;8.87;100.00
44996;BME280;30729;49.486;10.792;2024-03-02T17:45:47;96458.31;;;8.86;100.00
44996;BME280;30729;49.486;10.792;2024-03-02T17:48:12;96459.09;;;8.86;100.00
44996;BME280;30729;49.486;10.792;2024-03-02T17:50:37;96452.91;;;8.76;100.00
44996;BME280;30729;49.486;10.792;2024-03-02T17:53:03;96447.28;;;8.71;100.00
44996;BME280;30729;49.486;10.792;2024-03-02T17:55:28;96444.88;;;8.64;100.00
44996;BME280;30729;49.486;10.792;2024-03-02T17:57:53;96449.69;;;8.63;100.00
44996;BME280;30729;49.486;10.792;2024-03-02T18:00:19;96446.41;;;8.65;100.00
44996;BME280;30729;49.486;10.792;2024-03-02T18:02:46;96447.78;;;8.54;100.00
44996;BME280;30729;49.486;10.792;2024-03-02T18:05:11;96447.97;;;8.51;100.00
44996;BME280;30729;49.486;10.792;2024-03-02T18:07:36;96453.53;;;8.36;100.00
44996;BME280;30729;49.486;10.792;2024-03-02T18:10:03;96451.44;;;8.31;100.00
44996;BME280;30729;49.486;10.792;2024-03-02T18:12:28;96447.41;;;8.32;100.00
44996;BME280;30729;49.486;10.792;2024-03-02T18:14:54;96451.63;;;8.27;100.00
44996;BME280;30729;49.486;10.792;2024-03-02T18:17:20;96446.69;;;8.17;100.00
44996;BME280;30729;49.486;10.792;2024-03-02T18:19:45;96449.91;;;8.15;100.00
44996;BME280;30729;49.486;10.792;2024-03-02T18:22:10;96449.72;;;8.19;100.00
44996;BME280;30729;49.486;10.792;2024-03-02T18:24:36;96443.81;;;8.26;100.00
44996;BME280;30729;49.486;10.792;2024-03-02T18:27:01;96447.72;;;8.34;100.00
44996;BME280;30729;49.486;10.792;2024-03-02T18:29:26;96436.88;;;8.36;100.00
44996;BME280;30729;49.486;10.792;2024-03-02T18:31:51;96435.94;;;8.24;100.00
44996;BME280;30729;49.486;10.792;2024-03-02T18:34:17;96433.94;;;8.25;100.00
44996;BME280;30729;49.486;10.792;2024-03-02T18:36:42;96426.41;;;8.25;100.00
44996;BME280;30729;49.486;10.792;2024-03-02T18:39:08;96432.13;;;8.22;100.00
44996;BME280;30729;49.486;10.792;2024-03-02T18:41:35;96436.34;;;8.17;100.00
44996;BME280;30729;49.486;10.792;2024-03-02T18:44:00;96427.81;;;8.21;100.00
44996;BME280;30729;49.486;10.792;2024-03-02T18:46:25;96433.84;;;8.34;100.00
44996;BME280;30729;49.486;10.792;2024-03-02T18:48:50;96431.72;;;8.29;100.00
44996;BME280;30729;49.486;10.792;2024-03-02T18:51:16;96423.22;;;8.32;100.00
44996;BME280;30729;49.486;10.792;2024-03-02T18:53:41;96426.19;;;8.29;100.00
44996;BME280;30729;49.486;10.792;2024-03-02T18:56:09;96430.59;;;8.21;100.00
44996;BME280;30729;49.486;10.792;2024-03-02T18:58:34;96433.47;;;8.26;100.00
44996;BME280;30729;49.486;10.792;2024-03-02T19:01:00;96427.53;;;8.19;100.00
44996;BME280;30729;49.486;10.792;2024-03-02T19:03:25;96429.16;;;8.11;100.00
44996;BME280;30729;49.486;10.792;2024-03-02T19:05:50;96426.22;;;7.99;100.00
44996;BME280;30729;49.486;10.792;2024-03-02T19:08:15;96424.09;;;7.94;100.00
44996;BME280;30729;49.486;10.792;2024-03-02T19:10:43;96420.47;;;7.88;100.00
44996;BME280;30729;49.486;10.792;2024-03-02T19:13:09;96422.41;;;7.82;100.00
44996;BME280;30729;49.486;10.792;2024-03-02T19:15:34;96414.72;;;7.77;100.00
44996;BME280;30729;49.486;10.792;2024-03-02T19:17:59;96412.25;;;7.79;100.00
44996;BME280;30729;49.486;10.792;2024-03-02T19:20:24;96415.88;;;7.70;100.00
44996;BME280;30729;49.486;10.792;2024-03-02T19:22:50;96422.78;;;7.75;100.00
44996;BME280;30729;49.486;10.792;2024-03-02T19:25:15;96424.59;;;7.78;100.00
44996;BME280;30729;49.486;10.792;2024-03-02T19:27:41;96419.91;;;7.84;100.00
44996;BME280;30729;49.486;10.792;2024-03-02T19:30:07;96411.97;;;7.77;100.00
44996;BME280;30729;49.486;10.792;2024-03-02T19:32:33;96409.19;;;7.77;100.00
44996;BME280;30729;49.486;10.792;2024-03-02T19:34:58;96412.06;;;7.68;100.00
44996;BME280;30729;49.486;10.792;2024-03-02T19:37:25;96408.16;;;7.74;100.00
44996;BME280;30729;49.486;10.792;2024-03-02T19:39:50;96402.13;;;7.76;100.00
44996;BME280;30729;49.486;10.792;2024-03-02T19:42:15;96401.75;;;7.68;100.00
44996;BME280;30729;49.486;10.792;2024-03-02T19:44:41;96397.94;;;7.66;100.00
44996;BME280;30729;49.486;10.792;2024-03-02T19:47:08;96388.28;;;7.61;100.00
44996;BME280;30729;49.486;10.792;2024-03-02T19:49:33;96389.13;;;7.52;100.00
44996;BME280;30729;49.486;10.792;2024-03-02T19:51:58;96391.03;;;7.46;100.00
44996;BME280;30729;49.486;10.792;2024-03-02T19:54:23;96391.03;;;7.46;100.00
44996;BME280;30729;49.486;10.792;2024-03-02T19:56:49;96384.91;;;7.42;100.00
44996;BME280;30729;49.486;10.792;2024-03-02T19:59:14;96384.34;;;7.38;100.00
44996;BME280;30729;49.486;10.792;2024-03-02T20:01:39;96380.03;;;7.37;100.00
44996;BME280;30729;49.486;10.792;2024-03-02T20:04:05;96383.09;;;7.39;100.00
44996;BME280;30729;49.486;10.792;2024-03-02T20:06:30;96383.38;;;7.41;100.00
44996;BME280;30729;49.486;10.792;2024-03-02T20:08:55;96383.38;;;7.41;100.00
44996;BME280;30729;49.486;10.792;2024-03-02T20:11:20;96381.66;;;7.44;100.00
44996;BME280;30729;49.486;10.792;2024-03-02T20:13:46;96385.28;;;7.50;100.00
44996;BME280;30729;49.486;10.792;2024-03-02T20:16:11;96389.88;;;7.38;100.00
44996;BME280;30729;49.486;10.792;2024-03-02T20:18:36;96384.34;;;7.38;100.00
44996;BME280;30729;49.486;10.792;2024-03-02T20:21:02;96383.00;;;7.48;100.00
44996;BME280;30729;49.486;10.792;2024-03-02T20:23:28;96371.72;;;7.37;100.00
44996;BME280;30729;49.486;10.792;2024-03-02T20:25:53;96377.16;;;7.31;100.00
44996;BME280;30729;49.486;10.792;2024-03-02T20:28:20;96374.28;;;7.26;100.00
44996;BME280;30729;49.486;10.792;2024-03-02T20:30:45;96368.44;;;7.24;100.00
44996;BME280;30729;49.486;10.792;2024-03-02T20:33:10;96368.84;;;7.17;100.00
44996;BME280;30729;49.486;10.792;2024-03-02T20:35:35;96371.88;;;7.19;100.00
44996;BME280;30729;49.486;10.792;2024-03-02T20:38:01;96361.19;;;7.12;100.00
44996;BME280;30729;49.486;10.792;2024-03-02T20:40:26;96362.72;;;7.13;100.00
44996;BME280;30729;49.486;10.792;2024-03-02T20:42:52;96366.72;;;7.12;100.00
44996;BME280;30729;49.486;10.792;2024-03-02T20:45:19;96362.13;;;7.09;100.00
44996;BME280;30729;49.486;10.792;2024-03-02T20:47:45;96364.53;;;7.16;100.00
44996;BME280;30729;49.486;10.792;2024-03-02T20:50:11;96354.31;;;7.22;100.00
44996;BME280;30729;49.486;10.792;2024-03-02T20:52:36;96366.06;;;7.17;100.00
44996;BME280;30729;49.486;10.792;2024-03-02T20:55:01;96360.59;;;7.07;100.00
44996;BME280;30729;49.486;10.792;2024-03-02T20:57:27;96357.56;;;7.20;100.00
44996;BME280;30729;49.486;10.792;2024-03-02T20:59:52;96357.16;;;7.13;100.00
44996;BME280;30729;49.486;10.792;2024-03-02T21:02:17;96357.44;;;7.15;100.00
44996;BME280;30729;49.486;10.792;2024-03-02T21:04:43;96354.91;;;7.26;100.00
44996;BME280;30729;49.486;10.792;2024-03-02T21:07:10;96359.50;;;7.29;100.00
44996;BME280;30729;49.486;10.792;2024-03-02T21:09:35;96350.03;;;7.21;100.00
44996;BME280;30729;49.486;10.792;2024-03-02T21:12:00;96351.06;;;7.09;100.00
44996;BME280;30729;49.486;10.792;2024-03-02T21:14:27;96355.72;;;7.02;100.00
44996;BME280;30729;49.486;10.792;2024-03-02T21:16:52;96348.06;;;6.97;100.00
44996;BME280;30729;49.486;10.792;2024-03-02T21:19:17;96349.88;;;7.00;100.00
44996;BME280;30729;49.486;10.792;2024-03-02T21:21:43;96353.59;;;6.97;100.00
44996;BME280;30729;49.486;10.792;2024-03-02T21:24:08;96345.38;;;6.88;100.00
44996;BME280;30729;49.486;10.792;2024-03-02T21:26:40;96345.09;;;6.86;100.00
44996;BME280;30729;49.486;10.792;2024-03-02T21:29:07;96331.00;;;6.75;100.00
44996;BME280;30729;49.486;10.792;2024-03-02T21:31:32;96329.78;;;6.76;100.00
44996;BME280;30729;49.486;10.792;2024-03-02T21:33:57;96330.09;;;6.78;100.00
44996;BME280;30729;49.486;10.792;2024-03-02T21:36:23;96330.75;;;6.73;100.00
44996;BME280;30729;49.486;10.792;2024-03-02T21:38:48;96329.22;;;6.72;100.00
44996;BME280;30729;49.486;10.792;2024-03-02T21:41:13;96329.22;;;6.72;100.00
44996;BME280;30729;49.486;10.792;2024-03-02T21:43:38;96324.25;;;6.76;100.00
44996;BME280;30729;49.486;10.792;2024-03-02T21:46:06;96322.13;;;6.71;100.00
44996;BME280;30729;49.486;10.792;2024-03-02T21:48:32;96320.97;;;6.63;100.00
44996;BME280;30729;49.486;10.792;2024-03-02T21:50:57;96316.66;;;6.62;100.00
44996;BME280;30729;49.486;10.792;2024-03-02T21:53:23;96316.22;;;6.63;100.00
44996;BME280;30729;49.486;10.792;2024-03-02T21:55:48;96297.84;;;6.51;100.00
44996;BME280;30729;49.486;10.792;2024-03-02T21:58:13;96293.88;;;6.67;100.00
44996;BME280;30729;49.486;10.792;2024-03-02T22:00:39;96278.06;;;6.67;100.00
44996;BME280;30729;49.486;10.792;2024-03-02T22:03:04;96277.28;;;6.67;100.00
44996;BME280;30729;49.486;10.792;2024-03-02T22:05:31;96282.94;;;6.72;100.00
44996;BME280;30729;49.486;10.792;2024-03-02T22:07:56;96271.09;;;6.72;100.00
44996;BME280;30729;49.486;10.792;2024-03-02T22:10:22;96278.19;;;6.88;100.00
44996;BME280;30729;49.486;10.792;2024-03-02T22:12:47;96274.66;;;6.87;100.00
44996;BME280;30729;49.486;10.792;2024-03-02T22:15:12;96273.72;;;6.90;100.00
44996;BME280;30729;49.486;10.792;2024-03-02T22:17:38;96256.34;;;6.90;100.00
44996;BME280;30729;49.486;10.792;2024-03-02T22:20:03;96251.19;;;6.97;100.00
44996;BME280;30729;49.486;10.792;2024-03-02T22:22:29;96242.50;;;6.90;100.00
44996;BME280;30729;49.486;10.792;2024-03-02T22:24:54;96241.06;;;6.94;100.00
44996;BME280;30729;49.486;10.792;2024-03-02T22:27:19;96231.63;;;6.86;100.00
44996;BME280;30729;49.486;10.792;2024-03-02T22:29:44;96230.56;;;6.84;100.00
44996;BME280;30729;49.486;10.792;2024-03-02T22:32:10;96229.13;;;6.88;100.00
44996;BME280;30729;49.486;10.792;2024-03-02T22:34:35;96233.44;;;6.89;100.00
44996;BME280;30729;49.486;10.792;2024-03-02T22:37:00;96231.72;;;6.92;100.00
44996;BME280;30729;49.486;10.792;2024-03-02T22:39:25;96240.69;;;7.01;100.00
44996;BME280;30729;49.486;10.792;2024-03-02T22:41:51;96237.63;;;6.99;100.00
44996;BME280;30729;49.486;10.792;2024-03-02T22:44:17;96247.94;;;6.99;100.00
44996;BME280;30729;49.486;10.792;2024-03-02T22:46:43;96246.72;;;7.00;100.00
44996;BME280;30729;49.486;10.792;2024-03-02T22:49:09;96246.22;;;7.01;100.00
44996;BME280;30729;49.486;10.792;2024-03-02T22:51:34;96251.00;;;6.86;100.00
44996;BME280;30729;49.486;10.792;2024-03-02T22:53:59;96245.06;;;6.93;100.00
44996;BME280;30729;49.486;10.792;2024-03-02T22:56:25;96251.66;;;6.96;100.00
44996;BME280;30729;49.486;10.792;2024-03-02T22:58:50;96259.97;;;6.96;100.00
44996;BME280;30729;49.486;10.792;2024-03-02T23:01:15;96256.34;;;7.04;100.00
44996;BME280;30729;49.486;10.792;2024-03-02T23:03:42;96277.63;;;6.98;100.00
44996;BME280;30729;49.486;10.792;2024-03-02T23:06:08;96274.66;;;7.02;100.00
44996;BME280;30729;49.486;10.792;2024-03-02T23:08:34;96277.91;;;7.00;100.00
44996;BME280;30729;49.486;10.792;2024-03-02T23:10:59;96272.00;;;7.07;100.00
44996;BME280;30729;49.486;10.792;2024-03-02T23:13:25;96279.25;;;7.05;100.00
44996;BME280;30729;49.486;10.792;2024-03-02T23:15:52;96279.56;;;7.07;100.00
44996;BME280;30729;49.486;10.792;2024-03-02T23:18:17;96277.81;;;7.10;100.00
44996;BME280;30729;49.486;10.792;2024-03-02T23:20:43;96279.16;;;6.99;100.00
44996;BME280;30729;49.486;10.792;2024-03-02T23:23:08;96280.31;;;7.07;100.00
44996;BME280;30729;49.486;10.792;2024-03-02T23:25:34;96281.94;;;6.99;100.00
44996;BME280;30729;49.486;10.792;2024-03-02T23:28:00;96279.53;;;6.92;100.00
44996;BME280;30729;49.486;10.792;2024-03-02T23:30:25;96264.75;;;6.95;100.00
44996;BME280;30729;49.486;10.792;2024-03-02T23:32:51;96275.50;;;6.93;100.00
44996;BME280;30729;49.486;10.792;2024-03-02T23:35:17;96266.84;;;6.86;100.00
44996;BME280;30729;49.486;10.792;2024-03-02T23:37:42;96270.06;;;6.84;100.00
44996;BME280;30729;49.486;10.792;2024-03-02T23:40:08;96270.63;;;6.88;100.00
44996;BME280;30729;49.486;10.792;2024-03-02T23:42:37;96267.22;;;6.93;100.00
44996;BME280;30729;49.486;10.792;2024-03-02T23:45:02;96270.63;;;6.88;100.00
44996;BME280;30729;49.486;10.792;2024-03-02T23:47:28;96267.34;;;6.60;100.00
44996;BME280;30729;49.486;10.792;2024-03-02T23:49:54;96270.72;;;6.40;100.00
44996;BME280;30729;49.486;10.792;2024-03-02T23:52:19;96258.78;;;6.34;100.00
44996;BME280;30729;49.486;10.792;2024-03-02T23:54:44;96258.91;;;6.16;100.00
44996;BME280;30729;49.486;10.792;2024-03-02T23:57:09;96263.25;;;6.08;100.00
44996;BME280;30729;49.486;10.792;2024-03-02T23:59:35;96263.53;;;6.10;100.00
